createdAt,value
2022-11-01T13:43:27.785Z,21.33
2022-11-01T13:46:18.838Z,23.75
2022-11-01T13:49:16.621Z,22.55
2022-11-01T13:51:49.433Z,22.75
2022-11-01T13:54:25.987Z,23.08
2022-11-01T13:56:59.801Z,26.10
2022-11-01T13:59:34.194Z,23.35
2022-11-01T14:02:34.153Z,20.73
2022-11-01T14:05:04.448Z,27.70
2022-11-01T14:07:34.745Z,22.58
2022-11-01T14:10:12.035Z,23.73
2022-11-01T14:12:44.912Z,24.80
2022-11-01T14:15:23.328Z,25.05
2022-11-01T14:18:04.413Z,20.67
2022-11-01T14:20:50.774Z,23.08
2022-11-01T14:23:51.043Z,27.30
2022-11-01T14:26:49.112Z,22.30
2022-11-01T14:29:17.367Z,27.13
2022-11-01T14:31:49.577Z,28.63
2022-11-01T14:34:32.765Z,23.77
2022-11-01T14:37:09.564Z,23.30
2022-11-01T14:39:42.341Z,24.20
2022-11-01T14:42:17.197Z,28.15
2022-11-01T14:44:50.460Z,30.13
2022-11-01T14:47:29.234Z,30.13
2022-11-01T14:50:02.289Z,23.73
2022-11-01T14:52:36.411Z,25.23
2022-11-01T14:55:13.607Z,23.40
2022-11-01T14:57:42.383Z,34.13
2022-11-01T15:00:23.008Z,21.60
2022-11-01T15:02:53.286Z,21.83
2022-11-01T15:05:21.920Z,23.95
2022-11-01T15:07:52.361Z,25.85
2022-11-01T15:10:21.158Z,22.95
2022-11-01T15:12:53.386Z,27.25
2022-11-01T15:15:24.361Z,26.85
2022-11-01T15:17:56.602Z,26.70
2022-11-01T15:20:27.551Z,30.10
2022-11-01T15:22:57.794Z,30.23
2022-11-01T15:25:27.591Z,36.55
2022-11-01T15:27:59.428Z,29.92
2022-11-01T15:30:30.290Z,33.35
2022-11-01T15:33:20.874Z,34.55
2022-11-01T15:35:55.479Z,31.55
2022-11-01T15:38:24.050Z,34.83
2022-11-01T15:40:53.274Z,31.42
2022-11-01T15:43:24.860Z,35.47
2022-11-01T15:45:55.123Z,26.85
2022-11-01T15:48:28.434Z,33.80
2022-11-01T15:51:00.744Z,33.95
2022-11-01T15:53:33.520Z,35.58
2022-11-01T15:56:06.041Z,33.67
2022-11-01T15:58:38.581Z,31.25
2022-11-01T16:01:13.174Z,32.88
2022-11-01T16:03:48.946Z,30.90
2022-11-01T16:06:27.397Z,31.40
2022-11-01T16:09:01.722Z,28.63
2022-11-01T16:11:33.916Z,35.15
2022-11-01T16:14:04.947Z,37.70
2022-11-01T16:16:57.984Z,33.35
2022-11-01T16:19:42.644Z,31.00
2022-11-01T16:22:39.035Z,38.55
2022-11-01T16:26:10.267Z,37.05
2022-11-01T16:28:40.727Z,33.15
2022-11-01T16:54:26.015Z,34.55
2022-11-01T16:56:58.410Z,29.02
2022-11-01T16:59:36.678Z,30.77
2022-11-01T17:02:16.840Z,33.45
2022-11-01T17:04:46.131Z,29.45
2022-11-01T17:07:14.406Z,30.25
2022-11-01T17:09:47.056Z,30.73
2022-11-01T17:12:15.275Z,35.03
2022-11-01T17:14:43.495Z,33.13
2022-11-01T17:17:15.769Z,35.88
2022-11-01T17:19:47.887Z,29.98
2022-11-01T17:22:19.427Z,34.35
2022-11-01T17:24:49.306Z,32.47
2022-11-01T17:27:18.641Z,34.25
2022-11-01T17:29:46.804Z,34.38
2022-11-01T17:32:14.941Z,31.80
2022-11-01T17:34:42.980Z,33.63
2022-11-01T17:37:17.073Z,35.90
2022-11-01T17:39:45.427Z,28.52
2022-11-01T17:42:14.929Z,34.72
2022-11-01T17:44:43.462Z,40.20
2022-11-01T17:47:15.352Z,30.45
2022-11-01T17:49:43.523Z,35.92
2022-11-01T17:52:11.908Z,37.30
2022-11-01T17:54:40.189Z,42.35
2022-11-01T17:57:08.453Z,40.97
2022-11-01T17:59:38.277Z,46.85
2022-11-01T18:02:06.534Z,39.75
2022-11-01T18:04:35.749Z,41.80
2022-11-01T18:07:05.306Z,35.80
2022-11-01T18:09:35.126Z,41.13
2022-11-01T18:12:10.143Z,42.15
2022-11-01T18:17:31.671Z,43.78
2022-11-01T18:20:05.645Z,42.25
2022-11-01T18:22:45.279Z,43.90
2022-11-01T18:25:27.022Z,42.00
2022-11-01T18:27:57.398Z,46.15
2022-11-01T18:30:26.945Z,48.83
2022-11-01T18:33:03.086Z,48.72
2022-11-01T18:35:35.969Z,46.78
2022-11-01T18:38:13.648Z,46.15
2022-11-01T18:40:52.011Z,42.15
2022-11-01T18:43:21.583Z,36.35
2022-11-01T18:46:22.773Z,56.05
2022-11-01T18:48:39.809Z,40.40
2022-11-01T18:51:14.996Z,43.35
2022-11-01T18:53:43.189Z,47.30
2022-11-01T18:56:21.831Z,60.33
2022-11-01T18:58:51.291Z,46.63
2022-11-01T19:01:24.915Z,52.42
2022-11-01T19:04:01.119Z,47.33
2022-11-01T19:06:32.565Z,45.13
2022-11-01T19:09:14.066Z,47.83
2022-11-01T19:11:42.130Z,46.60
2022-11-01T19:14:12.686Z,46.83
2022-11-01T19:16:42.819Z,51.63
2022-11-01T19:19:16.853Z,55.05
2022-11-01T19:21:45.334Z,48.45
2022-11-01T19:24:30.960Z,57.25
2022-11-01T19:27:00.297Z,59.80
2022-11-01T19:29:32.188Z,54.05
2022-11-01T19:32:04.683Z,56.33
2022-11-01T19:34:36.151Z,54.05
2022-11-01T19:37:08.495Z,60.90
2022-11-01T19:39:40.855Z,53.22
2022-11-01T19:42:20.584Z,52.60
2022-11-01T19:44:48.902Z,54.08
2022-11-01T19:47:34.384Z,53.35
2022-11-01T19:50:03.476Z,57.13
2022-11-01T19:52:36.103Z,62.55
2022-11-01T19:55:28.877Z,56.13
2022-11-01T19:57:57.782Z,57.60
2022-11-01T20:00:29.178Z,59.47
2022-11-01T20:03:02.030Z,51.03
2022-11-01T20:05:34.575Z,52.53
2022-11-01T20:08:15.360Z,55.38
2022-11-01T20:10:43.731Z,63.78
2022-11-01T20:13:18.488Z,58.90
2022-11-01T20:15:49.477Z,58.33
2022-11-01T20:18:19.534Z,56.30
2022-11-01T20:20:47.994Z,60.08
2022-11-01T20:23:31.595Z,52.85
2022-11-01T20:25:59.798Z,54.35
2022-11-01T20:28:28.172Z,61.40
2022-11-01T20:30:56.341Z,56.35
2022-11-01T20:33:26.531Z,62.67
2022-11-01T20:35:55.141Z,65.20
2022-11-01T20:38:23.471Z,65.28
2022-11-01T20:40:52.290Z,58.88
2022-11-01T20:43:20.473Z,64.93
2022-11-01T20:45:48.837Z,71.45
2022-11-01T20:48:18.261Z,55.75
2022-11-01T20:50:47.952Z,55.95
2022-11-01T20:53:16.585Z,54.88
2022-11-01T20:55:44.848Z,58.08
2022-11-01T20:58:14.041Z,61.13
2022-11-01T21:00:43.005Z,50.97
2022-11-01T21:03:15.399Z,51.10
2022-11-01T21:05:45.309Z,53.53
2022-11-01T21:08:22.524Z,52.65
2022-11-01T21:11:02.124Z,72.10
2022-11-01T21:13:32.228Z,56.20
2022-11-01T21:16:02.313Z,53.63
2022-11-01T21:18:39.763Z,67.20
2022-11-01T21:21:33.764Z,60.20
2022-11-01T21:24:34.494Z,71.53
2022-11-01T21:27:21.844Z,67.10
2022-11-01T21:29:51.398Z,79.90
2022-11-01T21:32:27.068Z,57.45
2022-11-01T21:34:55.480Z,71.88
2022-11-01T21:37:25.140Z,75.47
2022-11-01T21:40:01.584Z,71.25
2022-11-01T21:42:36.520Z,74.38
2022-11-01T21:45:28.393Z,68.93
2022-11-01T21:47:58.822Z,69.35
2022-11-01T21:50:26.797Z,66.03
2022-11-01T21:52:54.974Z,61.35
2022-11-01T21:55:23.133Z,63.15
2022-11-01T21:57:52.953Z,64.50
2022-11-01T22:00:21.465Z,63.22
2022-11-01T22:02:49.583Z,56.53
2022-11-01T22:05:17.606Z,67.65
2022-11-01T22:07:45.711Z,60.70
2022-11-01T22:10:13.727Z,57.72
2022-11-01T22:12:41.861Z,72.28
2022-11-01T22:15:13.559Z,59.67
2022-11-01T22:17:41.905Z,63.47
2022-11-01T22:20:10.535Z,75.60
2022-11-01T22:22:38.757Z,63.90
2022-11-01T22:25:07.835Z,56.33
2022-11-01T22:27:36.410Z,64.45
2022-11-01T22:30:06.712Z,56.00
2022-11-01T22:32:36.875Z,52.85
2022-11-01T22:35:05.243Z,58.55
2022-11-01T22:37:35.962Z,53.03
2022-11-01T22:40:12.067Z,53.80
2022-11-01T22:42:40.997Z,47.47
2022-11-01T22:45:15.334Z,63.20
2022-11-01T22:47:46.380Z,52.25
2022-11-01T22:50:23.431Z,64.00
2022-11-01T22:52:51.506Z,58.78
2022-11-01T22:55:24.330Z,61.58
2022-11-01T22:57:56.150Z,62.28
2022-11-01T23:00:28.794Z,67.05
2022-11-01T23:03:02.261Z,65.65
2022-11-01T23:05:30.771Z,57.45
2022-11-01T23:08:08.953Z,67.38
2022-11-01T23:10:38.053Z,59.83
2022-11-01T23:13:34.339Z,59.30
2022-11-01T23:16:04.472Z,69.88
2022-11-01T23:18:35.956Z,66.35
2022-11-01T23:21:08.419Z,61.10
2022-11-01T23:23:37.574Z,69.80
2022-11-01T23:26:05.936Z,65.15
2022-11-01T23:28:35.529Z,63.45
2022-11-01T23:31:05.425Z,62.00
2022-11-01T23:33:40.584Z,62.65
2022-11-01T23:36:17.477Z,56.63
2022-11-01T23:38:49.631Z,65.00
2022-11-01T23:41:23.563Z,59.20
2022-11-01T23:43:53.266Z,58.30
2022-11-01T23:46:21.374Z,55.60
2022-11-01T23:48:55.237Z,62.03
2022-11-01T23:51:23.307Z,66.30
2022-11-01T23:53:54.566Z,59.35
2022-11-01T23:56:23.864Z,67.40
2022-11-01T23:58:56.957Z,56.35
